Latest Weather Observations for Adelaide Airport

IDS60901

Issued at 9:21 am CST Monday 23 April 2018 (issued every 10 minutes, with the page automatically refreshed every 10 minutes)

About weather observations | Map of Adelaide area stations | Latest observations for Adelaide area | Other Formats
Station Details ID: 023034 Name: ADELAIDE AIRPORT Lat: -34.95 Lon: 138.52 Height: 2.0 m
Data from the previous 72 hours. | See also: Recent months at Adelaide Airport
Date/Time
CST
Temp
°C
App
Temp
°C
Dew
Point
°C
Rel
Hum
%
Delta-T
°C
Wind Press
QNH
hPa
Press
MSL
hPa
Rain since
9am
mm
Dir  Spd
km/h
Gust
km/h
Spd
kts
Gust
kts
23/09:00am 24.7 19.1 3.7 25 10.3 N 22 35 12 19 1016.8 1016.8 0.0
23/08:30am 24.4 19.5 4.2 27 10.0 NNE 19 26 10 14 1016.5 1016.5 0.0
23/08:00am 23.1 18.7 5.0 31 9.0 NE 17 19 9 10 1016.0 1016.0 0.0
23/07:30am 20.5 17.6 6.6 40 7.0 NE 11 13 6 7 1015.8 1015.8 0.0
23/07:00am 18.8 15.5 6.3 44 6.2 NE 13 19 7 10 1015.4 1015.4 0.0
23/06:30am 19.4 15.5 5.3 39 6.9 NE 15 19 8 10 1014.9 1014.9 0.0
23/06:00am 17.6 14.4 6.7 48 5.4 NE 13 17 7 9 1014.6 1014.6 0.0
23/05:30am 16.3 14.0 8.9 61 3.8 NE 11 13 6 7 1014.5 1014.5 0.0
23/05:00am 16.2 13.9 10.5 69 3.0 NNE 13 17 7 9 1014.3 1014.3 0.0
23/04:30am 15.7 14.4 11.4 75 2.3 SSE 9 11 5 6 1014.2 1014.2 0.0
23/04:00am 17.3 16.5 13.0 76 2.4 NE 9 9 5 5 1014.2 1014.2 0.0
23/03:30am 19.0 18.7 14.3 74 2.7 N 9 11 5 6 1014.4 1014.4 0.0
23/03:00am 18.8 17.9 10.6 59 4.4 NW 6 9 3 5 1014.6 1014.6 0.0
23/02:30am 17.0 16.4 12.3 74 2.6 E 7 9 4 5 1014.7 1014.7 0.0
23/02:00am 17.2 17.8 13.1 77 2.3 E 2 7 1 4 1015.2 1015.2 0.0
23/01:30am 18.0 19.6 14.9 82 1.8 CALM 0 0 0 0 1015.6 1015.6 0.0
23/01:00am 19.8 18.9 14.8 73 2.9 WSW 13 15 7 8 1016.0 1016.0 0.0
23/12:30am 18.6 17.4 9.7 56 4.7 W 6 11 3 6 1016.2 1016.2 0.0
23/12:00am 19.5 18.7 9.5 52 5.3 ENE 4 7 2 4 1016.3 1016.3 0.0
 
Date/Time
CST
Temp
°C
App
Temp
°C
Dew
Point
°C
Rel
Hum
%
Delta-T
°C
Wind Press
QNH
hPa
Press
MSL
hPa
Rain since
9am
mm
Dir  Spd
km/h
Gust
km/h
Spd
kts
Gust
kts
22/11:30pm 20.3 18.2 9.6 50 5.7 ENE 11 13 6 7 1016.4 1016.4 0.0
22/11:00pm 20.6 18.2 10.2 51 5.6 E 13 17 7 9 1016.8 1016.8 0.0
22/10:30pm 21.1 18.2 9.5 47 6.2 E 15 19 8 10 1016.9 1016.9 0.0
22/10:00pm 20.6 18.6 10.2 51 5.6 E 11 13 6 7 1017.0 1017.0 0.0
22/09:30pm 20.0 19.4 12.3 61 4.3 SE 7 7 4 4 1017.2 1017.2 0.0
22/09:00pm 20.6 20.1 12.2 58 4.7 SSE 6 7 3 4 1017.3 1017.3 0.0
22/08:30pm 21.2 20.6 12.3 57 5.0 SE 7 9 4 5 1017.3 1017.3 0.0
22/08:00pm 21.7 21.2 12.7 56 5.1 ESE 7 7 4 4 1017.0 1017.0 0.0
22/07:30pm 22.7 23.1 12.5 52 5.8 ENE 2 7 1 4 1016.8 1016.8 0.0
22/07:00pm 23.9 23.2 12.1 47 6.7 ESE 7 7 4 4 1016.8 1016.8 0.0
22/06:30pm 23.9 21.8 11.0 44 7.2 E 13 15 7 8 1016.3 1016.3 0.0
22/06:00pm 23.6 25.3 15.2 59 5.0 CALM 0 0 0 0 1016.1 1016.1 0.0
22/05:30pm 24.5 24.7 14.8 54 5.8 WSW 7 9 4 5 1016.1 1016.1 0.0
22/05:00pm 26.9 26.9 14.3 46 7.5 WSW 7 9 4 5 1016.2 1016.2 0.0
22/04:30pm 27.8 27.1 13.2 40 8.6 NW 9 11 5 6 1016.3 1016.3 0.0
22/04:00pm 28.9 28.0 11.3 33 10.1 NW 7 13 4 7 1016.4 1016.4 0.0
22/03:30pm 27.8 27.1 13.2 40 8.6 NNW 9 13 5 7 1016.7 1016.7 0.0
22/03:00pm 27.4 25.9 11.9 38 8.9 WSW 11 15 6 8 1016.9 1016.9 0.0
22/02:30pm 26.5 25.8 13.2 43 7.8 SSW 9 17 5 9 1017.0 1017.0 0.0
22/02:00pm 25.0 24.3 14.2 51 6.4 WSW 11 15 6 8 1017.2 1017.2 0.0
22/01:30pm 24.8 23.3 14.1 51 6.3 WSW 15 17 8 9 1017.5 1017.5 0.0
22/01:00pm 24.3 22.8 14.3 53 5.9 WSW 15 19 8 10 1018.0 1018.0 0.0
22/12:30pm 24.5 23.3 14.1 52 6.1 WSW 13 17 7 9 1018.4 1018.4 0.0
22/12:00pm 23.8 23.1 14.3 55 5.6 WSW 11 15 6 8 1019.0 1019.0 0.0
22/11:30am 24.1 23.2 13.8 52 6.0 W 11 15 6 8 1019.6 1019.6 0.0
22/11:00am 23.8 23.8 14.1 54 5.7 WNW 7 11 4 6 1019.9 1019.9 0.0
22/10:30am 23.5 23.2 14.5 57 5.3 N 9 15 5 8 1020.1 1020.1 0.0
22/10:00am 22.6 22.4 14.8 61 4.6 NNW 9 13 5 7 1020.3 1020.3 0.0
22/09:30am 23.8 23.6 13.0 50 6.2 SSW 6 7 3 4 1020.4 1020.4 0.0
22/09:00am 22.0 22.9 14.1 61 4.6 SSE 2 7 1 4 1020.5 1020.5 0.2
22/08:30am 20.3 21.9 15.0 71 3.1 CALM 0 0 0 0 1020.5 1020.5 0.2
22/08:00am 17.9 18.1 14.6 81 1.9 ESE 7 7 4 4 1020.4 1020.4 0.2
22/07:30am 15.7 15.6 13.9 89 1.0 E 7 9 4 5 1020.2 1020.2 0.2
22/07:00am 14.3 15.2 12.8 91 0.8 CALM 0 0 0 0 1020.1 1020.1 0.2
22/06:30am 14.3 13.6 13.2 93 0.6 NE 9 9 5 5 1019.9 1019.9 0.2
22/06:00am 13.4 14.0 11.9 91 0.8 CALM 0 0 0 0 1019.6 1019.6 0.2
22/05:30am 16.3 16.3 15.1 93 0.7 NW 9 11 5 6 1019.2 1019.2 0.2
22/05:00am 15.4 14.7 13.2 87 1.2 WNW 9 11 5 6 1018.8 1018.8 0.2
22/04:30am 14.2 14.4 11.8 85 1.3 SSW 2 9 1 5 1018.7 1018.7 0.2
22/04:00am 15.0 14.5 12.0 82 1.6 ESE 6 7 3 4 1018.5 1018.5 0.2
22/03:30am 14.9 13.7 11.7 81 1.7 E 9 11 5 6 1018.6 1018.6 0.2
22/03:00am 14.9 13.7 11.7 81 1.7 SE 9 9 5 5 1019.1 1019.1 0.2
22/02:30am 15.0 15.7 12.2 83 1.5 CALM 0 0 0 0 1019.3 1019.3 0.2
22/02:00am 15.5 16.1 11.8 78 2.0 CALM 0 0 0 0 1019.6 1019.6 0.2
22/01:30am 15.9 16.5 12.0 77 2.1 CALM 0 0 0 0 1019.6 1019.6 0.2
22/01:00am 16.1 16.6 11.7 75 2.4 CALM 0 0 0 0 1019.7 1019.7 0.2
22/12:30am 17.7 16.9 11.8 68 3.2 NNW 7 7 4 4 1019.8 1019.8 0.2
22/12:00am 18.6 17.7 11.5 63 3.9 NNW 7 9 4 5 1020.0 1020.0 0.2
 
Date/Time
CST
Temp
°C
App
Temp
°C
Dew
Point
°C
Rel
Hum
%
Delta-T
°C
Wind Press
QNH
hPa
Press
MSL
hPa
Rain since
9am
mm
Dir  Spd
km/h
Gust
km/h
Spd
kts
Gust
kts
21/11:30pm 19.4 19.8 11.1 58 4.5 CALM 0 0 0 0 1020.0 1020.0 0.2
21/11:00pm 19.9 18.9 10.9 56 4.9 E 7 11 4 6 1020.2 1020.2 0.2
21/10:30pm 20.6 18.5 11.1 54 5.2 ESE 13 19 7 10 1020.4 1020.4 0.2
21/10:00pm 19.9 18.4 11.8 59 4.5 ESE 11 17 6 9 1020.5 1020.5 0.2
21/09:30pm 20.7 18.9 11.0 53 5.3 ESE 11 15 6 8 1020.4 1020.4 0.2
21/09:00pm 20.7 18.4 11.7 56 5.0 E 15 19 8 10 1020.3 1020.3 0.2
21/08:30pm 21.0 18.0 12.0 56 5.0 SE 19 26 10 14 1020.1 1020.1 0.2
21/08:00pm 21.1 18.3 12.6 58 4.8 SE 19 26 10 14 1019.9 1019.9 0.2
21/07:30pm 21.2 18.3 12.9 59 4.7 SE 20 30 11 16 1019.7 1019.7 0.2
21/07:00pm 21.8 18.6 13.2 58 4.9 SE 22 35 12 19 1019.4 1019.4 0.2
21/06:30pm 22.8 20.7 13.5 55 5.4 SE 17 24 9 13 1019.1 1019.1 0.2
21/06:00pm 24.0 21.4 13.9 53 5.9 SSE 20 26 11 14 1018.7 1018.7 0.2
21/05:30pm 24.0 21.5 12.4 48 6.6 S 17 20 9 11 1018.4 1018.4 0.2
21/05:00pm 23.6 21.2 12.6 50 6.3 SSW 17 22 9 12 1018.3 1018.3 0.2
21/04:30pm 23.7 21.6 13.5 52 5.9 SSW 17 19 9 10 1018.3 1018.3 0.2
21/04:00pm 23.4 21.3 14.6 57 5.2 SSW 19 22 10 12 1018.4 1018.4 0.2
21/03:30pm 24.1 22.8 14.9 56 5.5 SSW 15 19 8 10 1018.4 1018.4 0.2
21/03:00pm 23.7 22.3 16.5 64 4.4 SW 19 26 10 14 1018.4 1018.4 0.2
21/02:30pm 26.8 24.7 12.5 41 8.3 W 15 17 8 9 1018.4 1018.4 0.2
21/02:00pm 26.3 24.7 13.8 46 7.4 WSW 15 19 8 10 1018.4 1018.4 0.2
21/01:30pm 26.0 23.8 14.4 48 6.9 WSW 19 20 10 11 1018.5 1018.5 0.2
21/01:00pm 27.9 26.0 11.7 36 9.3 WNW 13 19 7 10 1018.6 1018.6 0.2
21/12:30pm 28.9 26.1 10.0 30 10.6 N 15 24 8 13 1018.9 1018.9 0.2
21/12:00pm 28.0 26.4 12.8 39 8.9 NNW 13 20 7 11 1019.3 1019.3 0.2
21/11:30am 28.9 25.6 9.5 29 10.8 NNE 17 24 9 13 1019.6 1019.6 0.2
21/11:00am 28.5 25.2 9.6 30 10.5 NNE 17 24 9 13 1019.9 1019.9 0.0
21/10:30am 27.9 24.5 9.2 31 10.3 NE 17 20 9 11 1020.0 1020.0 0.0
21/10:00am 26.8 23.8 10.6 36 9.1 NE 17 20 9 11 1020.2 1020.2 0.0
21/09:30am 26.1 23.1 10.5 37 8.7 NE 17 24 9 13 1020.4 1020.4 0.0
21/09:00am 24.3 22.5 12.2 46 6.9 ENE 13 17 7 9 1020.2 1020.2 1.8
21/08:30am 22.0 21.6 14.1 61 4.6 E 9 13 5 7 1020.4 1020.4 1.8
21/08:00am 19.3 19.0 15.4 78 2.3 E 11 13 6 7 1020.6 1020.6 1.8
21/07:30am 17.4 17.3 15.0 86 1.4 NE 9 11 5 6 1020.5 1020.5 1.8
21/07:00am 18.0 19.4 14.5 80 2.0 CALM 0 7 0 4 1020.6 1020.6 1.8
21/06:30am 18.3 17.5 15.0 81 1.9 E 13 15 7 8 1020.3 1020.3 1.8
21/06:00am 20.3 19.6 14.4 69 3.4 E 11 15 6 8 1020.5 1020.5 1.8
21/05:30am 21.7 17.1 12.3 55 5.3 WSW 28 46 15 25 1020.4 1020.4 1.8
21/05:18am 21.9 17.7 12.3 54 5.4 W 26 50 14 27 1020.5 1020.5 1.8
21/05:00am 19.1 18.6 12.7 66 3.6 NE 7 9 4 5 1018.2 1018.2 1.6
21/04:30am 19.3 18.2 12.1 63 4.0 S 9 11 5 6 1018.1 1018.1 1.6
21/04:00am 19.1 16.9 13.3 69 3.3 NE 17 19 9 10 1017.6 1017.6 1.6
21/03:30am 21.2 18.5 11.7 54 5.3 NE 17 19 9 10 1017.2 1017.2 1.6
21/03:00am 20.6 17.6 12.4 59 4.6 NE 20 26 11 14 1017.1 1017.1 1.6
21/02:30am 18.2 16.8 14.6 79 2.1 ENE 15 17 8 9 1017.5 1017.5 1.6
21/02:00am 18.2 16.2 14.9 81 1.9 E 19 24 10 13 1017.9 1017.9 1.6
21/01:30am 19.1 17.1 15.5 79 2.1 E 20 26 11 14 1018.2 1018.2 1.6
21/01:00am 19.7 16.5 16.2 80 2.1 SE 28 35 15 19 1019.2 1019.2 1.6
21/12:49am 19.9 18.6 16.7 82 1.9 SSE 19 26 10 14 1020.4 1020.4 1.6
21/12:30am 20.6 18.6 16.4 77 2.5 SW 22 30 12 16 1021.4 1021.4 1.4
21/12:25am 20.7 18.8 16.7 78 2.4 SW 22 30 12 16 1021.5 1021.5 1.0
21/12:11am 21.2 18.4 16.4 74 2.9 SW 26 32 14 17 1020.9 1020.9 0.8
21/12:00am 22.2 17.2 14.1 60 4.7 SW 33 48 18 26 1019.9 1019.9 0.6
 
Date/Time
CST
Temp
°C
App
Temp
°C
Dew
Point
°C
Rel
Hum
%
Delta-T
°C
Wind Press
QNH
hPa
Press
MSL
hPa
Rain since
9am
mm
Dir  Spd
km/h
Gust
km/h
Spd
kts
Gust
kts
20/11:58pm 22.1 16.7 14.0 60 4.7 SW 35 48 19 26 1019.7 1019.7 0.6
20/11:53pm 22.2 18.2 15.3 65 4.1 WSW 30 48 16 26 1019.6 1019.6 0.6
20/11:50pm 23.8 19.8 14.1 54 5.7 WSW 28 46 15 25 1019.5 1019.5 0.2
20/11:48pm 25.2 20.3 11.4 42 7.8 WSW 28 43 15 23 1019.3 1019.3 0.0
20/11:41pm 25.5 19.6 8.9 35 9.0 WSW 30 43 16 23 1019.0 1019.0 0.0
20/11:30pm 24.1 21.8 10.5 42 7.5 ENE 13 24 7 13 1018.2 1018.2 0.0
20/11:09pm 25.6 20.8 5.7 28 10.2 NNE 20 28 11 15 1016.8 1016.8 0.0
20/11:00pm 24.9 20.4 6.3 30 9.6 NE 19 20 10 11 1016.8 1016.8 0.0
20/10:30pm 23.8 19.6 7.3 34 8.6 NE 19 24 10 13 1016.8 1016.8 0.0
20/10:00pm 23.3 19.1 8.1 37 8.0 NNE 20 24 11 13 1017.0 1017.0 0.0
20/09:30pm 23.2 19.8 9.0 40 7.6 NE 17 19 9 10 1017.0 1017.0 0.0
20/09:00pm 22.4 19.9 9.6 44 6.9 NNE 13 13 7 7 1017.0 1017.0 0.0
20/08:30pm 21.7 19.2 9.8 46 6.4 NE 13 15 7 8 1016.8 1016.8 0.0
20/08:00pm 24.2 22.0 9.2 38 8.1 NNE 11 15 6 8 1017.1 1017.1 0.0
20/07:30pm 23.2 21.5 10.0 43 7.2 NE 9 11 5 6 1016.9 1016.9 0.0
20/07:00pm 24.2 23.2 10.4 41 7.6 E 6 7 3 4 1016.8 1016.8 0.0
20/06:30pm 25.5 24.5 10.9 40 8.2 ESE 7 9 4 5 1016.6 1016.6 0.0
20/06:00pm 27.1 25.8 11.3 37 9.0 ENE 9 11 5 6 1016.2 1016.2 0.0
20/05:30pm 28.7 27.9 11.2 33 10.0 SSE 6 7 3 4 1015.9 1015.9 0.0
20/05:00pm 29.0 27.9 10.5 31 10.5 S 7 7 4 4 1015.9 1015.9 0.0
20/04:30pm 28.9 27.5 9.5 29 10.8 SSW 7 9 4 5 1016.0 1016.0 0.0
20/04:00pm 28.6 27.1 10.6 32 10.2 SW 9 13 5 7 1016.1 1016.1 0.0
20/03:30pm 28.9 27.5 9.0 28 11.0 ESE 6 9 3 5 1016.0 1016.0 0.0
20/03:00pm 30.6 27.6 6.1 21 13.0 NNE 11 15 6 8 1016.0 1016.0 0.0
20/02:30pm 30.8 27.8 5.9 21 13.2 NNE 11 17 6 9 1016.1 1016.1 0.0
20/02:00pm 30.3 27.0 6.2 22 12.8 NNE 13 20 7 11 1016.1 1016.1 0.0
20/01:30pm 29.1 24.3 5.8 23 12.2 N 20 28 11 15 1016.1 1016.1 0.0
20/01:00pm 29.9 23.2 5.8 22 12.7 N 30 35 16 19 1016.3 1016.3 0.0
20/12:30pm 30.0 25.3 5.9 22 12.7 NE 20 28 11 15 1016.5 1016.5 0.0
20/12:00pm 28.5 23.7 5.6 23 11.9 NNE 20 32 11 17 1016.8 1016.8 0.0
20/11:30am 27.3 21.0 5.6 25 11.2 NE 28 35 15 19 1017.0 1017.0 0.0
20/11:00am 26.4 20.8 5.5 26 10.7 NE 24 35 13 19 1017.7 1017.7 0.0
20/10:30am 26.6 22.9 6.2 27 10.6 N 15 22 8 12 1019.0 1019.0 0.0
20/10:00am 25.0 21.8 7.0 31 9.4 N 13 19 7 10 1019.6 1019.6 0.0
20/09:30am 25.1 21.3 7.4 32 9.3 N 17 20 9 11 1019.4 1019.4 0.0

Latest Capital City Observations: Canberra | Sydney | Melbourne | Brisbane | Adelaide | Perth | Hobart | Darwin

Other Formats:

Comma delimited format used in spreadsheet applications
http://www.bom.gov.au/fwo/IDS60901/IDS60901.94672.axf

JavaScript Object Notation format (JSON) in row-major order
http://www.bom.gov.au/fwo/IDS60901/IDS60901.94672.json